createdAt,value
2022-11-20T00:01:55.914Z,2.65
2022-11-20T00:04:26.157Z,2.67
2022-11-20T00:06:56.418Z,2.69
2022-11-20T00:09:26.795Z,2.66
2022-11-20T00:11:57.044Z,2.69
2022-11-20T00:14:30.304Z,2.70
2022-11-20T00:17:00.441Z,2.71
2022-11-20T00:19:31.077Z,2.67
2022-11-20T00:22:01.247Z,2.68
2022-11-20T00:24:35.134Z,2.72
2022-11-20T00:27:07.043Z,2.74
2022-11-20T00:29:39.781Z,2.76
2022-11-20T00:32:10.009Z,2.74
2022-11-20T00:34:42.563Z,2.79
2022-11-20T00:37:12.716Z,2.82
2022-11-20T00:39:42.903Z,2.81
2022-11-20T00:42:13.064Z,2.84
2022-11-20T00:44:45.938Z,2.78
2022-11-20T00:47:16.298Z,2.81
2022-11-20T00:49:46.894Z,2.85
2022-11-20T00:52:17.037Z,2.76
2022-11-20T00:54:47.178Z,2.76
2022-11-20T00:57:17.640Z,2.78
2022-11-20T00:59:50.385Z,2.75
2022-11-20T01:02:20.690Z,2.73
2022-11-20T01:04:50.911Z,2.63
2022-11-20T01:07:21.265Z,2.61
2022-11-20T01:09:52.113Z,2.56
2022-11-20T01:12:22.196Z,2.61
2022-11-20T01:14:55.036Z,2.57
2022-11-20T01:17:25.230Z,2.50
2022-11-20T01:19:55.700Z,2.52
2022-11-20T01:22:25.835Z,2.54
2022-11-20T01:24:55.955Z,2.46
2022-11-20T01:27:26.129Z,2.49
2022-11-20T01:30:01.237Z,2.55
2022-11-20T01:32:31.816Z,2.52
2022-11-20T01:35:01.969Z,2.59
2022-11-20T01:37:32.231Z,2.58
2022-11-20T01:40:02.929Z,2.52
2022-11-20T01:42:45.537Z,2.45
2022-11-20T01:45:59.088Z,2.46
2022-11-20T01:48:33.676Z,2.45
2022-11-20T01:51:05.204Z,2.31
2022-11-20T01:53:38.604Z,2.36
2022-11-20T01:56:13.739Z,2.39
2022-11-20T01:58:48.784Z,2.44
2022-11-20T02:01:22.583Z,2.53
2022-11-20T02:03:54.307Z,2.52
2022-11-20T02:06:29.874Z,2.54
2022-11-20T02:09:00.323Z,2.53
2022-11-20T02:11:30.624Z,2.41
2022-11-20T02:13:59.156Z,2.45
2022-11-20T02:16:34.581Z,2.51
2022-11-20T02:19:10.226Z,2.57
2022-11-20T02:21:47.120Z,2.53
2022-11-20T02:24:22.303Z,2.58
2022-11-20T02:26:57.194Z,2.58
2022-11-20T02:29:30.775Z,2.59
2022-11-20T02:32:03.280Z,2.43
2022-11-20T02:34:33.756Z,2.50
2022-11-20T02:37:04.279Z,2.50
2022-11-20T02:39:37.133Z,2.45
2022-11-20T02:42:07.599Z,2.51
2022-11-20T02:44:37.811Z,2.55
2022-11-20T02:47:07.930Z,2.28
2022-11-20T02:49:38.467Z,2.46
2022-11-20T02:52:08.874Z,2.45
2022-11-20T02:54:41.667Z,2.46
2022-11-20T02:57:11.744Z,2.26
2022-11-20T02:59:42.060Z,2.35
2022-11-20T03:02:12.381Z,2.23
2022-11-20T03:04:42.565Z,2.29
2022-11-20T03:07:13.542Z,2.37
2022-11-20T03:09:46.296Z,2.30
2022-11-20T03:12:16.721Z,2.29
2022-11-20T03:14:52.641Z,2.22
2022-11-20T03:17:23.592Z,2.18
2022-11-20T03:19:53.775Z,2.13
2022-11-20T03:22:24.125Z,2.17
2022-11-20T03:24:56.913Z,2.14
2022-11-20T03:27:27.124Z,2.15
2022-11-20T03:29:57.479Z,2.01
2022-11-20T03:32:27.588Z,2.08
2022-11-20T03:34:57.868Z,2.15
2022-11-20T03:37:28.199Z,2.16
2022-11-20T03:40:01.284Z,2.12
2022-11-20T03:42:43.964Z,2.06
2022-11-20T03:45:15.223Z,2.11
2022-11-20T03:47:45.907Z,2.09
2022-11-20T03:50:17.513Z,2.11
2022-11-20T03:52:47.815Z,2.17
2022-11-20T03:55:20.725Z,2.21
2022-11-20T03:57:51.201Z,2.20
2022-11-20T04:00:21.661Z,2.24
2022-11-20T04:02:51.828Z,2.28
2022-11-20T04:05:21.874Z,2.30
2022-11-20T04:07:52.246Z,2.35
2022-11-20T04:10:25.240Z,2.42
2022-11-20T04:12:55.314Z,2.45
2022-11-20T04:15:25.608Z,2.49
2022-11-20T04:17:55.760Z,2.51
2022-11-20T04:20:26.019Z,2.53
2022-11-20T04:22:58.120Z,2.53
2022-11-20T04:25:30.807Z,2.60
2022-11-20T04:28:01.435Z,2.62
2022-11-20T04:30:31.868Z,2.58
2022-11-20T04:33:05.050Z,2.64
2022-11-20T04:35:38.031Z,2.69
2022-11-20T04:38:08.366Z,2.74
2022-11-20T04:40:41.509Z,2.82
2022-11-20T04:43:11.732Z,2.83
2022-11-20T04:45:41.787Z,2.85
2022-11-20T04:48:12.031Z,2.88
2022-11-20T04:50:44.132Z,2.86
2022-11-20T04:53:14.448Z,2.81
2022-11-20T04:55:47.370Z,2.86
2022-11-20T04:58:17.875Z,2.74
2022-11-20T05:00:48.104Z,2.67
2022-11-20T05:03:18.213Z,2.69
2022-11-20T05:05:48.308Z,2.70
2022-11-20T05:08:18.517Z,2.73
2022-11-20T05:10:51.351Z,2.72
2022-11-20T05:13:21.521Z,2.72
2022-11-20T05:15:51.699Z,2.78
2022-11-20T05:18:21.975Z,2.74
2022-11-20T05:20:59.145Z,2.75
2022-11-20T05:23:29.869Z,2.79
2022-11-20T05:26:02.967Z,2.82
2022-11-20T05:28:34.577Z,2.87
2022-11-20T05:31:11.966Z,2.88
2022-11-20T05:33:44.585Z,2.94
2022-11-20T05:36:15.764Z,2.93
2022-11-20T05:38:50.652Z,2.91
2022-11-20T05:41:24.585Z,2.91
2022-11-20T05:43:55.100Z,2.85
2022-11-20T05:46:29.318Z,2.91
2022-11-20T05:49:00.965Z,2.89
2022-11-20T05:51:32.180Z,2.84
2022-11-20T05:54:02.741Z,2.86
2022-11-20T05:56:35.454Z,2.90
2022-11-20T05:59:05.851Z,2.83
2022-11-20T06:01:37.035Z,2.99
2022-11-20T06:04:07.797Z,3.03
2022-11-20T06:06:38.014Z,3.06
2022-11-20T06:09:08.449Z,3.13
2022-11-20T06:11:41.316Z,3.15
2022-11-20T06:14:11.772Z,3.11
2022-11-20T06:16:41.915Z,3.12
2022-11-20T06:19:12.131Z,3.10
2022-11-20T06:21:42.384Z,3.08
2022-11-20T06:24:13.371Z,3.12
2022-11-20T06:26:51.955Z,3.13
2022-11-20T06:29:22.325Z,3.16
2022-11-20T06:31:52.720Z,3.17
2022-11-20T06:34:23.203Z,3.19
2022-11-20T06:36:53.604Z,3.13
2022-11-20T06:39:23.950Z,3.11
2022-11-20T06:41:59.505Z,3.06
2022-11-20T06:44:29.755Z,3.02
2022-11-20T06:46:59.972Z,2.95
2022-11-20T06:49:30.084Z,3.00
2022-11-20T06:52:00.423Z,3.01
2022-11-20T06:54:30.533Z,3.04
2022-11-20T06:57:03.408Z,2.95
2022-11-20T06:59:33.659Z,2.99
2022-11-20T07:02:04.815Z,3.05
2022-11-20T07:04:34.912Z,3.10
2022-11-20T07:07:05.136Z,3.17
2022-11-20T07:09:38.947Z,3.32
2022-11-20T07:12:12.337Z,3.36
2022-11-20T07:14:42.685Z,3.33
2022-11-20T07:17:12.672Z,3.34
2022-11-20T07:19:44.121Z,3.28
2022-11-20T07:22:14.443Z,3.23
2022-11-20T07:24:46.226Z,3.32
2022-11-20T07:27:19.129Z,3.33
2022-11-20T07:29:49.350Z,3.30
2022-11-20T07:32:19.539Z,3.36
2022-11-20T07:34:49.688Z,3.30
2022-11-20T07:37:20.085Z,3.23
2022-11-20T07:39:50.180Z,3.46
2022-11-20T07:42:22.998Z,3.62
2022-11-20T07:44:53.190Z,3.68
2022-11-20T07:47:23.401Z,3.80
2022-11-20T07:49:53.834Z,3.81
2022-11-20T07:52:24.204Z,3.86
2022-11-20T07:54:54.529Z,3.95
2022-11-20T07:57:28.611Z,4.00
2022-11-20T07:59:58.989Z,4.22
2022-11-20T08:02:29.208Z,4.39
2022-11-20T08:04:59.617Z,4.41
2022-11-20T08:07:29.861Z,4.63
2022-11-20T08:10:00.131Z,4.79
2022-11-20T08:12:45.259Z,4.99
2022-11-20T08:15:15.593Z,5.14
2022-11-20T08:18:01.958Z,5.30
2022-11-20T08:20:32.575Z,5.31
2022-11-20T08:23:03.848Z,5.45
2022-11-20T08:25:34.822Z,5.51
2022-11-20T08:28:19.899Z,5.44
2022-11-20T08:30:51.504Z,5.38
2022-11-20T08:33:22.303Z,5.37
2022-11-20T08:35:52.536Z,5.37
2022-11-20T08:38:22.851Z,5.42
2022-11-20T08:41:13.815Z,5.50
2022-11-20T08:43:46.569Z,5.53
2022-11-20T08:46:17.166Z,5.72
2022-11-20T08:48:47.945Z,5.77
2022-11-20T08:51:19.177Z,5.75
2022-11-20T08:53:49.759Z,5.85
2022-11-20T08:56:20.628Z,5.84
2022-11-20T09:01:44.686Z,6.09
2022-11-20T09:04:15.558Z,6.09
2022-11-20T09:06:45.911Z,6.05
2022-11-20T09:09:16.061Z,5.97
2022-11-20T09:11:46.224Z,5.96
2022-11-20T09:14:19.107Z,5.76
2022-11-20T09:16:51.812Z,5.97
2022-11-20T09:19:35.384Z,6.17
2022-11-20T09:22:06.520Z,6.29
2022-11-20T09:24:36.783Z,6.42
2022-11-20T09:27:08.286Z,6.67
2022-11-20T09:29:41.896Z,6.88
2022-11-20T09:32:12.068Z,6.77
2022-11-20T09:34:42.518Z,6.83
2022-11-20T09:37:12.660Z,6.92
2022-11-20T09:39:43.032Z,6.97
2022-11-20T09:42:39.799Z,7.04
2022-11-20T09:45:22.039Z,7.23
2022-11-20T09:48:07.321Z,7.30
2022-11-20T09:50:48.871Z,7.29
2022-11-20T09:53:29.046Z,6.97
2022-11-20T09:56:00.061Z,7.18
2022-11-20T09:58:36.176Z,7.11
2022-11-20T10:01:16.185Z,7.14
2022-11-20T10:03:57.473Z,7.18
2022-11-20T10:06:33.483Z,7.22
2022-11-20T10:09:16.112Z,7.29
2022-11-20T10:11:52.881Z,7.24
2022-11-20T10:14:34.803Z,7.20
2022-11-20T10:17:24.371Z,7.20
2022-11-20T10:20:12.819Z,7.18
2022-11-20T10:22:54.069Z,7.13
2022-11-20T10:25:28.456Z,7.22
2022-11-20T10:28:14.680Z,7.36
2022-11-20T10:30:48.081Z,7.41
2022-11-20T10:33:24.286Z,7.41
2022-11-20T10:35:58.363Z,7.43
2022-11-20T10:38:37.716Z,7.57
2022-11-20T10:41:23.344Z,7.71
2022-11-20T10:43:58.360Z,7.66
2022-11-20T10:46:32.498Z,7.85
2022-11-20T10:49:09.046Z,7.94
2022-11-20T10:51:43.948Z,8.07
2022-11-20T10:54:24.819Z,8.26
2022-11-20T10:56:56.311Z,8.38
2022-11-20T10:59:42.008Z,8.40
2022-11-20T11:02:24.271Z,8.51
2022-11-20T11:04:58.026Z,8.49
2022-11-20T11:07:33.560Z,8.44
2022-11-20T11:10:04.368Z,8.44
2022-11-20T11:12:35.109Z,8.30
2022-11-20T11:15:05.422Z,8.27
2022-11-20T11:17:37.724Z,8.19
2022-11-20T11:20:20.496Z,8.18
2022-11-20T11:22:53.859Z,8.22
2022-11-20T11:25:26.761Z,8.23
2022-11-20T11:27:59.250Z,8.23
2022-11-20T11:30:32.193Z,8.33
2022-11-20T11:33:10.535Z,8.42
2022-11-20T11:35:51.284Z,8.48
2022-11-20T11:38:27.333Z,8.42
2022-11-20T11:40:58.292Z,8.42
2022-11-20T11:43:42.932Z,8.41
2022-11-20T11:46:29.953Z,8.48
2022-11-20T11:49:02.514Z,8.45
2022-11-20T11:51:42.337Z,8.48
2022-11-20T11:54:21.660Z,8.52
2022-11-20T11:56:53.444Z,8.59
2022-11-20T11:59:31.182Z,8.62
2022-11-20T12:02:07.944Z,8.71
2022-11-20T12:04:48.589Z,8.70
2022-11-20T12:07:46.420Z,8.71
2022-11-20T12:10:24.004Z,8.80
2022-11-20T12:12:59.768Z,8.79
2022-11-20T12:15:34.139Z,8.68
2022-11-20T12:18:04.801Z,8.75
2022-11-20T12:20:45.927Z,8.82
2022-11-20T12:23:30.905Z,8.86
2022-11-20T12:26:05.142Z,9.05
2022-11-20T12:28:52.916Z,9.03
2022-11-20T12:31:41.659Z,9.05
2022-11-20T12:34:41.969Z,9.08
2022-11-20T12:37:24.183Z,9.15
2022-11-20T12:40:04.268Z,8.91
2022-11-20T12:43:12.159Z,8.88
2022-11-20T12:46:04.820Z,8.84
2022-11-20T12:48:59.761Z,8.78
2022-11-20T12:51:56.200Z,8.67
2022-11-20T12:54:50.090Z,8.60
2022-11-20T12:57:28.607Z,8.56
2022-11-20T13:00:15.738Z,8.48
2022-11-20T13:03:09.076Z,8.40
2022-11-20T13:05:51.036Z,8.39
2022-11-20T13:08:26.677Z,8.22
2022-11-20T13:11:08.132Z,8.14
2022-11-20T13:14:08.436Z,8.08
2022-11-20T13:16:45.484Z,8.03
2022-11-20T13:19:18.014Z,7.87
2022-11-20T13:21:50.580Z,7.54
2022-11-20T13:24:31.296Z,7.58
2022-11-20T13:27:09.788Z,7.64
2022-11-20T13:29:46.519Z,7.80
2022-11-20T13:32:20.832Z,7.75
2022-11-20T13:34:57.413Z,7.88
2022-11-20T13:37:31.675Z,7.78
2022-11-20T13:40:26.348Z,7.75
2022-11-20T13:43:05.058Z,7.64
2022-11-20T13:45:37.776Z,7.70
2022-11-20T13:48:23.030Z,7.71
2022-11-20T13:51:03.749Z,7.68
2022-11-20T13:53:52.286Z,7.59
2022-11-20T13:56:31.330Z,7.51
2022-11-20T13:59:15.591Z,7.55
2022-11-20T14:01:50.011Z,7.57
2022-11-20T14:04:29.530Z,7.55
2022-11-20T14:07:00.387Z,7.37
2022-11-20T14:09:32.995Z,7.54
2022-11-20T14:12:03.570Z,7.44
2022-11-20T14:14:37.598Z,7.36
2022-11-20T14:17:23.083Z,7.42
2022-11-20T14:19:55.404Z,7.39
2022-11-20T14:22:28.610Z,7.29
2022-11-20T14:25:08.413Z,7.25
2022-11-20T14:27:41.501Z,7.11
2022-11-20T14:30:18.257Z,7.02
2022-11-20T14:32:52.440Z,6.95
2022-11-20T14:35:25.860Z,7.00
2022-11-20T14:37:59.584Z,6.97
2022-11-20T14:40:33.238Z,6.82
2022-11-20T14:43:06.782Z,6.73
2022-11-20T14:45:37.932Z,6.73
2022-11-20T14:48:14.678Z,6.57
2022-11-20T14:50:45.016Z,6.47
2022-11-20T14:53:25.920Z,6.27
2022-11-20T14:56:01.439Z,6.34
2022-11-20T14:58:34.451Z,6.25
2022-11-20T15:01:07.330Z,6.30
2022-11-20T15:03:42.080Z,6.34
2022-11-20T15:06:16.202Z,6.32
2022-11-20T15:08:54.692Z,6.29
2022-11-20T15:11:32.031Z,6.21
2022-11-20T15:14:06.737Z,6.08
2022-11-20T15:16:37.300Z,6.12
2022-11-20T15:19:20.868Z,6.03
2022-11-20T15:21:51.225Z,6.00
2022-11-20T15:24:22.363Z,5.93
2022-11-20T15:26:52.964Z,5.90
2022-11-20T15:29:25.092Z,5.84
2022-11-20T15:31:56.014Z,5.79
2022-11-20T15:34:31.234Z,5.80
2022-11-20T15:37:01.872Z,5.74
2022-11-20T15:39:32.074Z,5.70
2022-11-20T15:42:02.260Z,5.65
2022-11-20T15:44:32.443Z,5.61
2022-11-20T15:47:02.830Z,5.60
2022-11-20T15:49:35.881Z,5.59
2022-11-20T15:52:05.981Z,5.54
2022-11-20T15:54:36.192Z,5.51
2022-11-20T15:57:07.003Z,5.45
2022-11-20T15:59:40.839Z,5.48
2022-11-20T16:02:18.674Z,5.42
2022-11-20T16:04:51.904Z,5.37
2022-11-20T16:07:22.048Z,5.29
2022-11-20T16:09:52.112Z,5.20
2022-11-20T16:12:34.437Z,5.20
2022-11-20T16:15:16.861Z,5.15
2022-11-20T16:17:47.165Z,5.12
2022-11-20T16:20:19.791Z,5.06
2022-11-20T16:22:49.914Z,5.00
2022-11-20T16:25:22.993Z,4.97
2022-11-20T16:27:53.092Z,4.90
2022-11-20T16:30:23.492Z,4.84
2022-11-20T16:32:53.618Z,4.80
2022-11-20T16:35:26.448Z,4.76
2022-11-20T16:37:56.504Z,4.70
2022-11-20T16:40:27.125Z,4.74
2022-11-20T16:43:00.269Z,4.72
2022-11-20T16:45:33.869Z,4.71
2022-11-20T16:48:04.157Z,4.65
2022-11-20T16:50:36.873Z,4.59
2022-11-20T16:53:06.891Z,4.52
2022-11-20T16:55:36.949Z,4.48
2022-11-20T16:58:07.071Z,4.48
2022-11-20T17:00:39.581Z,4.44
2022-11-20T17:03:10.222Z,4.46
2022-11-20T17:05:42.987Z,4.41
2022-11-20T17:08:13.052Z,4.42
2022-11-20T17:10:43.215Z,4.34
2022-11-20T17:13:13.310Z,4.31
2022-11-20T17:15:43.376Z,4.28
2022-11-20T17:18:13.979Z,4.24
2022-11-20T17:20:54.870Z,4.16
2022-11-20T17:23:24.925Z,4.06
2022-11-20T17:25:55.011Z,4.00
2022-11-20T17:28:25.187Z,3.95
2022-11-20T17:30:55.268Z,3.99
2022-11-20T17:33:25.415Z,3.98
2022-11-20T17:35:58.155Z,3.88
2022-11-20T17:38:28.452Z,3.82
2022-11-20T17:41:05.475Z,3.74
2022-11-20T17:43:37.220Z,3.57
2022-11-20T17:46:08.709Z,3.64
2022-11-20T17:48:42.497Z,3.60
2022-11-20T17:51:17.388Z,3.51
2022-11-20T17:53:49.481Z,3.47
2022-11-20T17:56:32.186Z,3.41
2022-11-20T17:59:03.119Z,3.37
2022-11-20T18:01:33.262Z,3.34
2022-11-20T18:04:03.379Z,3.37
2022-11-20T18:06:36.264Z,3.43
2022-11-20T18:09:12.348Z,3.40
2022-11-20T18:11:45.575Z,3.37
2022-11-20T18:14:32.918Z,3.36
2022-11-20T18:17:05.223Z,3.26
2022-11-20T18:19:41.232Z,3.30
2022-11-20T18:22:23.024Z,3.22
2022-11-20T18:24:53.163Z,3.18
2022-11-20T18:27:24.505Z,3.12
2022-11-20T18:29:54.584Z,3.06
2022-11-20T18:32:25.530Z,2.97
2022-11-20T18:34:55.856Z,2.95
2022-11-20T18:37:28.637Z,2.86
2022-11-20T18:39:58.740Z,2.82
2022-11-20T18:42:41.363Z,2.80
2022-11-20T18:45:12.299Z,2.87
2022-11-20T18:47:42.498Z,2.90
2022-11-20T18:50:12.973Z,2.86
2022-11-20T18:52:48.176Z,2.85
2022-11-20T18:55:18.190Z,2.83
2022-11-20T18:57:48.645Z,2.79
2022-11-20T19:00:19.367Z,2.70
2022-11-20T19:02:49.742Z,2.64
2022-11-20T19:05:20.259Z,2.61
2022-11-20T19:07:53.178Z,2.60
2022-11-20T19:10:24.499Z,2.59
2022-11-20T19:12:54.543Z,2.62
2022-11-20T19:15:24.555Z,2.63
2022-11-20T19:17:57.040Z,2.64
2022-11-20T19:20:27.586Z,2.68
2022-11-20T19:23:00.360Z,2.69
2022-11-20T19:25:35.160Z,2.68
2022-11-20T19:28:08.172Z,2.66
2022-11-20T19:30:38.771Z,2.64
2022-11-20T19:33:08.918Z,2.63
2022-11-20T19:35:39.423Z,2.64
2022-11-20T19:38:12.269Z,2.69
2022-11-20T19:40:42.412Z,2.69
2022-11-20T19:43:12.535Z,2.71
2022-11-20T19:45:42.890Z,2.68
2022-11-20T19:48:13.327Z,2.66
2022-11-20T19:50:43.363Z,2.64
2022-11-20T19:53:16.248Z,2.62
2022-11-20T19:55:46.320Z,2.60
2022-11-20T19:58:16.489Z,2.57
2022-11-20T20:00:46.717Z,2.53
2022-11-20T20:03:16.949Z,2.48
2022-11-20T20:05:47.460Z,2.45
2022-11-20T20:08:23.241Z,2.37
2022-11-20T20:10:59.881Z,2.35
2022-11-20T20:13:30.151Z,2.31
2022-11-20T20:16:00.329Z,2.34
2022-11-20T20:18:30.471Z,2.30
2022-11-20T20:21:06.189Z,2.20
2022-11-20T20:23:38.965Z,2.36
2022-11-20T20:26:11.502Z,2.33
2022-11-20T20:28:42.853Z,2.28
2022-11-20T20:31:15.000Z,2.32
2022-11-20T20:33:45.939Z,2.30
2022-11-20T20:36:17.543Z,2.38
2022-11-20T20:38:50.940Z,2.38
2022-11-20T20:41:22.448Z,2.41
2022-11-20T20:44:05.044Z,2.44
2022-11-20T20:46:35.396Z,2.43
2022-11-20T20:49:07.981Z,2.47
2022-11-20T20:51:38.544Z,2.48
2022-11-20T20:54:11.202Z,2.52
2022-11-20T20:56:41.251Z,2.50
2022-11-20T20:59:12.084Z,2.54
2022-11-20T21:01:42.329Z,2.49
2022-11-20T21:04:12.486Z,2.48
2022-11-20T21:06:42.567Z,2.48
2022-11-20T21:09:15.298Z,2.45
2022-11-20T21:11:47.457Z,2.41
2022-11-20T21:14:17.570Z,2.36
2022-11-20T21:16:47.617Z,2.36
2022-11-20T21:19:19.135Z,2.33
2022-11-20T21:22:03.304Z,2.27
2022-11-20T21:24:37.778Z,2.20
2022-11-20T21:27:09.000Z,2.08
2022-11-20T21:29:39.175Z,2.01
2022-11-20T21:32:09.233Z,1.95
2022-11-20T21:34:39.324Z,1.93
2022-11-20T21:37:09.467Z,1.87
2022-11-20T21:39:50.896Z,1.83
2022-11-20T21:42:21.015Z,1.83
2022-11-20T21:44:51.071Z,1.79
2022-11-20T21:47:21.290Z,1.79
2022-11-20T21:49:51.356Z,1.79
2022-11-20T21:52:21.447Z,1.87
2022-11-20T21:54:54.099Z,1.90
2022-11-20T21:57:24.140Z,1.92
2022-11-20T21:59:54.211Z,1.91
2022-11-20T22:02:24.455Z,1.88
2022-11-20T22:05:04.469Z,1.87
2022-11-20T22:07:34.627Z,1.84
2022-11-20T22:10:08.028Z,1.82
2022-11-20T22:12:38.189Z,1.81
2022-11-20T22:15:07.028Z,1.75
2022-11-20T22:17:49.445Z,1.70
2022-11-20T22:20:19.628Z,1.69
2022-11-20T22:22:49.650Z,1.46
2022-11-20T22:25:22.394Z,1.62
2022-11-20T22:27:52.988Z,1.56
2022-11-20T22:30:23.312Z,1.51
2022-11-20T22:32:56.555Z,1.44
2022-11-20T22:35:26.492Z,1.42
2022-11-20T22:37:56.581Z,1.36
2022-11-20T22:40:29.252Z,1.36
2022-11-20T22:42:59.378Z,1.30
2022-11-20T22:45:29.466Z,1.27
2022-11-20T22:48:02.422Z,1.22
2022-11-20T22:50:32.509Z,1.15
2022-11-20T22:53:02.687Z,1.15
2022-11-20T22:55:36.009Z,1.15
2022-11-20T22:58:06.072Z,1.09
2022-11-20T23:00:36.326Z,1.05
2022-11-20T23:03:06.373Z,1.00
2022-11-20T23:05:36.568Z,1.08
2022-11-20T23:08:06.963Z,1.08
2022-11-20T23:10:39.653Z,1.05
2022-11-20T23:13:09.911Z,1.03
2022-11-20T23:15:39.998Z,1.02
2022-11-20T23:18:10.293Z,1.01
2022-11-20T23:20:40.348Z,1.01
2022-11-20T23:23:10.538Z,0.98
2022-11-20T23:25:43.493Z,1.00
2022-11-20T23:28:13.811Z,0.97
2022-11-20T23:30:43.822Z,0.93
2022-11-20T23:33:13.932Z,0.92
2022-11-20T23:35:44.025Z,0.91
2022-11-20T23:38:14.113Z,0.96
2022-11-20T23:40:52.103Z,0.83
2022-11-20T23:43:24.319Z,0.90
2022-11-20T23:45:56.077Z,0.87
2022-11-20T23:48:28.867Z,0.91
2022-11-20T23:50:59.274Z,0.92
2022-11-20T23:53:30.592Z,0.90
2022-11-20T23:56:05.262Z,1.01
2022-11-20T23:58:38.556Z,1.03
